Time;durP1;ratioP1;P1;durP2;ratioP2;P2;SDS_P1;SDS_P2;PMS_P1;PMS_P2;Temp;Humidity;BMP_temperature;BMP_pressure;BME280_temperature;BME280_humidity;BME280_pressure;Samples;Min_cycle;Max_cycle;Signal;HPM_P1;HPM_P2
2020/12/11 00:00:00;;;;;;;41.25;16.05;;;3.20;94.80;;;;;;5016139;28;20021;-70
2020/12/11 00:02:26;;;;;;;46.80;18.83;;;3.20;94.60;;;;;;5030277;28;20049;-70
2020/12/11 00:04:51;;;;;;;47.20;18.08;;;3.20;94.50;;;;;;5029261;28;20030;-70
2020/12/11 00:07:17;;;;;;;47.95;18.10;;;3.20;94.50;;;;;;5021914;28;20017;-70
2020/12/11 00:09:42;;;;;;;49.08;18.38;;;3.20;94.50;;;;;;5030100;28;20125;-71
2020/12/11 00:12:08;;;;;;;46.88;16.50;;;3.10;94.50;;;;;;5012638;28;20025;-71
2020/12/11 00:14:33;;;;;;;48.78;18.33;;;3.20;94.60;;;;;;5029331;28;20025;-71
2020/12/11 00:16:59;;;;;;;47.95;17.70;;;3.10;94.60;;;;;;5011384;28;20029;-70
2020/12/11 00:19:24;;;;;;;49.40;18.85;;;3.10;94.60;;;;;;5030897;28;20108;-70
2020/12/11 00:21:50;;;;;;;52.05;18.80;;;3.10;94.60;;;;;;5037887;28;20474;-70
2020/12/11 00:24:16;;;;;;;47.88;18.35;;;3.10;94.70;;;;;;5033647;28;20481;-70
2020/12/11 00:26:42;;;;;;;51.30;17.90;;;3.10;94.70;;;;;;5025490;28;20513;-69
2020/12/11 00:29:07;;;;;;;48.10;18.23;;;3.10;94.70;;;;;;5015043;28;20068;-69
2020/12/11 00:31:33;;;;;;;47.30;18.52;;;3.20;94.80;;;;;;5018892;28;20025;-70
2020/12/11 00:33:59;;;;;;;50.67;18.30;;;3.20;94.80;;;;;;5014838;28;20018;-70
2020/12/11 00:36:25;;;;;;;45.75;18.42;;;3.20;94.80;;;;;;5030379;28;20030;-70
2020/12/11 00:38:51;;;;;;;52.72;20.00;;;3.20;94.80;;;;;;5034525;28;20497;-70
2020/12/11 00:41:17;;;;;;;55.22;20.17;;;3.20;94.80;;;;;;5033126;28;20063;-70
2020/12/11 00:43:42;;;;;;;49.33;18.42;;;3.20;94.80;;;;;;5016681;28;20036;-70
2020/12/11 00:46:08;;;;;;;51.50;19.70;;;3.20;94.80;;;;;;5031778;28;20041;-70
2020/12/11 00:48:34;;;;;;;43.97;17.80;;;3.20;94.80;;;;;;5034474;28;20048;-70
2020/12/11 00:50:59;;;;;;;42.92;17.08;;;3.30;94.90;;;;;;5031506;28;20384;-70
2020/12/11 00:53:25;;;;;;;46.85;19.13;;;3.30;94.80;;;;;;5033741;28;20467;-70
2020/12/11 00:55:51;;;;;;;46.67;17.73;;;3.30;95.00;;;;;;5032827;28;20714;-69
2020/12/11 00:58:16;;;;;;;46.28;18.75;;;3.30;94.70;;;;;;5033268;28;20496;-70
2020/12/11 01:00:42;;;;;;;47.00;19.40;;;3.40;94.70;;;;;;5036828;28;20496;-70
2020/12/11 01:03:08;;;;;;;45.80;19.10;;;3.30;94.70;;;;;;5043993;28;20029;-70
2020/12/11 01:05:35;;;;;;;44.63;16.95;;;3.40;94.70;;;;;;5032849;28;20036;-69
2020/12/11 01:08:02;;;;;;;44.97;17.17;;;3.30;94.60;;;;;;5051624;28;20029;-70
2020/12/11 01:10:27;;;;;;;46.50;17.67;;;3.30;94.60;;;;;;5020033;28;20056;-69
2020/12/11 01:12:53;;;;;;;44.78;17.77;;;3.30;94.60;;;;;;5032770;28;20067;-69
2020/12/11 01:15:18;;;;;;;40.72;17.05;;;3.30;94.60;;;;;;5019459;28;20017;-70
2020/12/11 01:17:44;;;;;;;44.72;16.27;;;3.30;94.50;;;;;;5049697;28;20056;-70
2020/12/11 01:20:09;;;;;;;47.58;17.73;;;3.30;94.50;;;;;;5033592;28;20135;-70
2020/12/11 01:22:53;;;;;;;42.40;16.67;;;3.30;94.50;;;;;;5033278;28;20036;-70
2020/12/11 01:25:19;;;;;;;47.28;18.02;;;3.30;94.50;;;;;;5029004;28;20022;-70
2020/12/11 01:27:44;;;;;;;46.28;17.50;;;3.20;94.50;;;;;;5027060;28;20507;-70
2020/12/11 01:30:10;;;;;;;43.33;17.75;;;3.20;94.60;;;;;;5034337;28;20072;-70
2020/12/11 01:32:36;;;;;;;51.55;19.63;;;3.20;94.50;;;;;;5031669;28;20485;-70
2020/12/11 01:35:01;;;;;;;42.63;18.38;;;3.20;94.60;;;;;;5032607;28;20026;-70
2020/12/11 01:37:27;;;;;;;47.15;18.20;;;3.20;94.50;;;;;;5031395;28;20071;-70
2020/12/11 01:39:53;;;;;;;47.50;18.38;;;3.20;94.50;;;;;;5032621;28;20026;-70
2020/12/11 01:42:18;;;;;;;39.58;17.05;;;3.10;94.40;;;;;;5021450;28;20049;-70
2020/12/11 01:44:51;;;;;;;48.75;17.20;;;3.10;94.50;;;;;;5013696;28;20485;-70
2020/12/11 01:47:17;;;;;;;44.55;17.80;;;3.10;94.60;;;;;;5022423;28;20528;-70
2020/12/11 01:49:45;;;;;;;44.83;17.73;;;3.20;94.50;;;;;;5014023;28;20029;-69
2020/12/11 01:52:11;;;;;;;46.97;17.98;;;3.20;94.50;;;;;;5036140;28;20152;-69
2020/12/11 01:54:37;;;;;;;42.78;17.52;;;3.20;94.50;;;;;;5050907;28;20127;-69
2020/12/11 01:57:05;;;;;;;48.10;18.35;;;3.20;94.60;;;;;;5032287;28;20033;-69
2020/12/11 01:59:42;;;;;;;45.42;17.38;;;3.30;94.60;;;;;;5034550;28;20078;-69
2020/12/11 02:02:12;;;;;;;58.03;20.02;;;3.30;94.60;;;;;;5032236;28;20035;-69
2020/12/11 02:04:38;;;;;;;52.28;18.42;;;3.20;94.50;;;;;;5032796;28;20377;-69
2020/12/11 02:07:05;;;;;;;56.70;20.17;;;3.20;94.60;;;;;;5032078;28;20029;-69
2020/12/11 02:09:32;;;;;;;49.97;19.10;;;3.20;94.60;;;;;;5032159;28;21978;-70
2020/12/11 02:11:57;;;;;;;50.85;17.95;;;3.20;94.60;;;;;;5044151;28;20029;-70
2020/12/11 02:14:23;;;;;;;49.17;19.30;;;3.20;94.60;;;;;;5051151;28;20024;-70
2020/12/11 02:16:48;;;;;;;44.53;16.75;;;3.20;94.60;;;;;;5022472;28;20034;-70
2020/12/11 02:19:14;;;;;;;43.65;17.67;;;3.20;94.60;;;;;;5013413;28;20116;-70
2020/12/11 02:21:40;;;;;;;43.70;16.92;;;3.20;94.60;;;;;;5028813;28;20021;-70
2020/12/11 02:24:06;;;;;;;42.95;17.35;;;3.30;94.60;;;;;;5024390;28;20068;-70
2020/12/11 02:26:31;;;;;;;41.00;17.75;;;3.20;94.50;;;;;;5021362;28;20018;-70
2020/12/11 02:28:57;;;;;;;40.05;16.42;;;3.20;94.40;;;;;;5030327;28;20398;-70
2020/12/11 02:31:22;;;;;;;40.95;16.95;;;3.20;94.50;;;;;;5031788;28;20010;-70
2020/12/11 02:33:48;;;;;;;38.88;16.83;;;3.20;94.50;;;;;;5028786;28;20048;-70
2020/12/11 02:36:13;;;;;;;41.40;15.63;;;3.20;94.50;;;;;;5018067;28;20025;-70
2020/12/11 02:38:39;;;;;;;40.38;16.75;;;3.30;94.50;;;;;;5025810;28;20117;-70
2020/12/11 02:41:08;;;;;;;35.45;17.98;;;3.30;94.40;;;;;;5014716;28;20032;-70
2020/12/11 02:43:37;;;;;;;43.75;16.98;;;3.20;94.30;;;;;;5028775;28;20060;-70
2020/12/11 02:46:03;;;;;;;39.17;16.08;;;3.20;94.30;;;;;;5031595;28;20034;-70
2020/12/11 02:48:29;;;;;;;44.80;17.13;;;3.20;94.30;;;;;;5032220;28;20109;-70
2020/12/11 02:50:55;;;;;;;43.33;16.38;;;3.30;94.30;;;;;;5031212;28;20172;-70
2020/12/11 02:53:21;;;;;;;36.30;16.65;;;3.20;94.30;;;;;;5045837;28;20049;-70
2020/12/11 02:55:46;;;;;;;39.25;16.25;;;3.20;94.30;;;;;;5022625;28;20028;-70
2020/12/11 02:58:12;;;;;;;43.55;16.38;;;3.20;94.30;;;;;;5031614;28;20467;-70
2020/12/11 03:00:37;;;;;;;43.83;17.98;;;3.20;94.30;;;;;;5032254;28;20026;-70
2020/12/11 03:03:03;;;;;;;35.88;16.17;;;3.20;94.30;;;;;;5024393;28;20030;-70
2020/12/11 03:05:28;;;;;;;44.83;17.42;;;3.20;94.30;;;;;;4994657;28;20470;-71
2020/12/11 03:07:54;;;;;;;47.47;17.08;;;3.20;94.40;;;;;;5027055;28;20766;-71
2020/12/11 03:10:38;;;;;;;42.40;17.50;;;3.20;94.30;;;;;;5032259;28;20766;-71
2020/12/11 03:13:07;;;;;;;41.85;16.25;;;3.20;94.30;;;;;;5030410;28;20112;-71
2020/12/11 03:15:32;;;;;;;45.30;18.15;;;3.10;94.30;;;;;;5032040;28;20101;-71
2020/12/11 03:17:57;;;;;;;40.83;17.48;;;3.20;94.40;;;;;;5030973;28;20026;-71
2020/12/11 03:20:23;;;;;;;43.50;17.38;;;3.10;94.40;;;;;;5031764;28;20017;-72
2020/12/11 03:22:51;;;;;;;45.30;18.17;;;3.10;94.50;;;;;;5041103;28;20039;-70
2020/12/11 03:25:17;;;;;;;47.85;17.15;;;3.10;94.50;;;;;;5046081;28;20373;-71
2020/12/11 03:27:42;;;;;;;50.38;18.15;;;3.10;94.50;;;;;;5026245;28;20022;-71
2020/12/11 03:30:08;;;;;;;40.15;15.35;;;3.10;94.60;;;;;;5031269;28;20518;-71
2020/12/11 03:32:33;;;;;;;51.72;20.05;;;3.20;94.60;;;;;;5000411;28;20034;-70
2020/12/11 03:34:59;;;;;;;43.28;16.85;;;3.10;94.60;;;;;;5014662;28;20041;-70
2020/12/11 03:37:24;;;;;;;49.72;17.25;;;3.10;94.60;;;;;;5037610;28;20389;-69
2020/12/11 03:39:50;;;;;;;51.78;17.85;;;3.10;94.60;;;;;;5048560;28;20074;-70
2020/12/11 03:42:15;;;;;;;46.63;18.42;;;3.10;94.60;;;;;;5035158;28;20481;-70
2020/12/11 03:44:40;;;;;;;38.25;15.65;;;3.20;94.60;;;;;;5051388;28;20126;-70
2020/12/11 03:47:06;;;;;;;43.78;15.00;;;3.10;94.50;;;;;;5035380;28;20366;-70
2020/12/11 03:49:31;;;;;;;34.13;14.98;;;3.10;94.50;;;;;;5043076;28;20032;-70
2020/12/11 03:51:57;;;;;;;44.78;16.48;;;3.10;94.50;;;;;;5042521;28;20529;-70
2020/12/11 03:54:22;;;;;;;38.80;15.98;;;3.10;94.40;;;;;;5021932;28;20042;-70
2020/12/11 03:56:48;;;;;;;39.88;16.67;;;3.10;94.50;;;;;;5041741;28;20070;-69
2020/12/11 03:59:14;;;;;;;43.55;18.05;;;3.10;94.50;;;;;;5048217;28;20028;-70
2020/12/11 04:01:40;;;;;;;47.03;18.58;;;3.10;94.50;;;;;;5034377;28;20045;-70
2020/12/11 04:04:05;;;;;;;42.97;18.23;;;3.10;94.50;;;;;;5033849;28;20490;-70
2020/12/11 04:06:31;;;;;;;33.47;16.30;;;3.10;94.50;;;;;;5020405;28;20048;-70
2020/12/11 04:08:56;;;;;;;36.75;16.00;;;3.10;94.50;;;;;;5034287;28;20036;-70
2020/12/11 04:11:22;;;;;;;34.70;15.88;;;3.10;94.50;;;;;;5017826;28;20056;-70
2020/12/11 04:13:49;;;;;;;44.10;17.02;;;3.20;94.50;;;;;;5034297;28;20029;-71
2020/12/11 04:16:14;;;;;;;42.03;16.60;;;3.10;94.40;;;;;;5036991;28;20017;-71
2020/12/11 04:18:41;;;;;;;37.40;17.02;;;3.10;94.40;;;;;;5032274;28;20565;-71
2020/12/11 04:21:13;;;;;;;33.85;15.48;;;3.20;94.40;;;;;;5016799;28;20029;-71
2020/12/11 04:23:40;;;;;;;38.30;16.52;;;3.10;94.40;;;;;;5033958;28;20041;-71
2020/12/11 04:26:06;;;;;;;39.97;15.82;;;3.10;94.40;;;;;;5035061;28;20022;-71
2020/12/11 04:28:31;;;;;;;38.20;16.27;;;3.10;94.30;;;;;;5036256;28;20163;-71
2020/12/11 04:30:57;;;;;;;36.30;15.75;;;3.20;94.40;;;;;;5034864;28;20057;-71
2020/12/11 04:33:22;;;;;;;37.40;16.67;;;3.20;94.30;;;;;;5033977;28;20033;-71
2020/12/11 04:35:48;;;;;;;42.33;17.17;;;3.20;94.40;;;;;;5035019;28;20489;-71
2020/12/11 04:38:13;;;;;;;42.08;16.40;;;3.20;94.30;;;;;;5032962;28;20113;-71
2020/12/11 04:40:39;;;;;;;41.70;16.77;;;3.20;94.30;;;;;;5046730;28;20462;-73
2020/12/11 04:43:08;;;;;;;40.08;18.48;;;3.20;94.30;;;;;;5036811;28;20033;-69
2020/12/11 04:45:36;;;;;;;39.97;17.35;;;3.20;94.30;;;;;;5036914;28;20034;-72
2020/12/11 04:48:02;;;;;;;39.50;17.13;;;3.20;94.30;;;;;;5031061;28;20029;-72
2020/12/11 04:50:28;;;;;;;39.30;16.77;;;3.20;94.30;;;;;;5034497;28;20025;-76
2020/12/11 04:52:56;;;;;;;44.03;16.90;;;3.10;94.30;;;;;;5030538;28;20037;-71
2020/12/11 04:55:21;;;;;;;37.90;15.98;;;3.20;94.30;;;;;;5018017;28;20026;-71
2020/12/11 04:57:49;;;;;;;38.55;16.83;;;3.20;94.30;;;;;;5030594;28;20036;-69
2020/12/11 05:00:36;;;;;;;42.65;18.60;;;3.20;94.30;;;;;;5028434;28;20550;-71
2020/12/11 05:03:22;;;;;;;39.35;17.45;;;3.20;94.30;;;;;;5013165;28;20040;-71
2020/12/11 05:05:48;;;;;;;44.95;18.40;;;3.20;94.30;;;;;;5034495;28;20030;-70
2020/12/11 05:08:18;;;;;;;40.08;17.65;;;3.20;94.30;;;;;;5038521;28;20028;-71
2020/12/11 05:10:45;;;;;;;40.65;17.40;;;3.20;94.30;;;;;;5024632;28;20033;-71
2020/12/11 05:13:40;;;;;;;45.80;18.35;;;3.20;94.20;;;;;;5029738;28;20041;-71
2020/12/11 05:16:10;;;;;;;;;;;3.10;94.30;;;;;;5030232;28;20030;-71
2020/12/11 05:18:37;;;;;;;38.58;16.85;;;3.20;94.20;;;;;;5025149;28;19975;-72
2020/12/11 05:21:22;;;;;;;43.80;17.10;;;3.20;94.30;;;;;;4996177;28;20030;-71
2020/12/11 05:24:00;;;;;;;;;;;3.20;94.30;;;;;;5033419;28;20041;-71
2020/12/11 05:26:31;;;;;;;42.40;16.88;;;3.20;94.30;;;;;;5032449;28;19905;-71
2020/12/11 05:28:57;;;;;;;37.25;14.70;;;3.10;94.20;;;;;;5049185;28;20400;-71
2020/12/11 05:31:23;;;;;;;39.63;17.23;;;3.10;94.30;;;;;;5051436;28;20078;-71
2020/12/11 05:34:09;;;;;;;39.10;17.13;;;3.10;94.40;;;;;;5023728;28;20025;-71
2020/12/11 05:36:54;;;;;;;36.30;16.40;;;3.10;94.40;;;;;;5014124;28;20038;-70
2020/12/11 05:39:30;;;;;;;40.22;16.67;;;3.10;94.40;;;;;;5033708;28;20052;-70
2020/12/11 05:41:57;;;;;;;42.58;17.80;;;3.00;94.40;;;;;;5041447;28;20032;-70
2020/12/11 05:44:30;;;;;;;37.08;16.60;;;3.10;94.40;;;;;;5020534;28;20390;-70
2020/12/11 05:46:57;;;;;;;38.10;15.60;;;3.00;94.40;;;;;;5015547;28;20065;-70
2020/12/11 05:49:25;;;;;;;42.58;18.60;;;3.10;94.40;;;;;;5017480;28;20391;-70
2020/12/11 05:51:55;;;;;;;34.35;14.93;;;3.10;94.40;;;;;;5017944;28;20017;-70
2020/12/11 05:54:22;;;;;;;37.55;15.43;;;3.00;94.40;;;;;;5041974;28;20041;-70
2020/12/11 05:56:48;;;;;;;44.13;17.13;;;3.10;94.40;;;;;;5049112;28;20044;-70
2020/12/11 05:59:14;;;;;;;42.28;16.83;;;3.10;94.40;;;;;;5033220;28;20433;-69
2020/12/11 06:01:40;;;;;;;35.88;16.60;;;3.10;94.40;;;;;;5031857;28;20121;-70
2020/12/11 06:04:06;;;;;;;39.97;16.85;;;3.10;94.40;;;;;;5048843;28;20060;-69
2020/12/11 06:06:34;;;;;;;43.38;17.00;;;3.10;94.40;;;;;;5044396;28;20017;-69
2020/12/11 06:09:01;;;;;;;39.90;17.17;;;3.00;94.40;;;;;;5052465;28;20020;-69
2020/12/11 06:11:35;;;;;;;40.65;17.42;;;3.10;94.40;;;;;;5052693;28;20021;-70
2020/12/11 06:14:06;;;;;;;53.22;21.65;;;3.00;94.50;;;;;;5030588;28;20025;-69
2020/12/11 06:16:37;;;;;;;41.28;18.20;;;3.00;94.50;;;;;;5032767;28;20087;-70
2020/12/11 06:19:05;;;;;;;42.72;18.50;;;3.00;94.50;;;;;;5032111;28;20562;-69
2020/12/11 06:21:31;;;;;;;40.83;18.67;;;3.00;94.60;;;;;;5032305;28;20063;-70
2020/12/11 06:23:57;;;;;;;45.88;18.80;;;3.00;94.60;;;;;;5031612;28;20048;-70
2020/12/11 06:26:22;;;;;;;47.45;19.42;;;3.00;94.70;;;;;;5032524;28;20018;-70
2020/12/11 06:28:49;;;;;;;48.70;19.08;;;3.00;94.70;;;;;;5031352;28;20029;-70
2020/12/11 06:31:16;;;;;;;47.95;18.27;;;3.00;94.70;;;;;;5034596;28;20022;-69
2020/12/11 06:33:44;;;;;;;47.70;19.92;;;3.00;94.70;;;;;;5031062;28;20045;-70
2020/12/11 06:36:10;;;;;;;43.63;17.60;;;3.00;94.70;;;;;;5032034;28;20040;-70
2020/12/11 06:38:40;;;;;;;55.00;20.50;;;3.00;94.70;;;;;;5012175;28;20029;-69
2020/12/11 06:41:06;;;;;;;45.90;19.33;;;3.00;94.80;;;;;;5032392;28;20065;-69
2020/12/11 06:43:42;;;;;;;54.40;20.08;;;3.00;94.80;;;;;;5030686;28;20088;-69
2020/12/11 06:46:19;;;;;;;52.60;20.15;;;3.00;94.80;;;;;;5033003;28;20033;-69
2020/12/11 06:49:06;;;;;;;50.00;19.88;;;3.10;94.80;;;;;;5041673;28;20039;-69
2020/12/11 06:51:32;;;;;;;47.75;19.67;;;3.10;94.80;;;;;;5049932;28;20044;-72
2020/12/11 06:53:58;;;;;;;48.20;20.08;;;3.00;94.80;;;;;;5030879;28;20060;-71
2020/12/11 06:56:41;;;;;;;48.65;19.17;;;3.00;94.80;;;;;;5032038;28;20474;-71
2020/12/11 06:59:23;;;;;;;48.05;19.73;;;3.00;94.80;;;;;;5029006;28;20091;-71
2020/12/11 07:01:49;;;;;;;55.53;21.30;;;3.00;94.80;;;;;;5028524;28;20112;-71
2020/12/11 07:04:15;;;;;;;58.42;20.27;;;3.00;94.80;;;;;;5030285;28;20033;-69
2020/12/11 07:06:51;;;;;;;47.35;19.90;;;3.00;94.80;;;;;;5037093;28;20041;-77
2020/12/11 07:09:17;;;;;;;48.80;21.08;;;3.00;94.80;;;;;;5019001;28;20026;-76
2020/12/11 07:11:43;;;;;;;44.08;18.13;;;3.00;94.80;;;;;;5017699;28;20057;-77
2020/12/11 07:14:09;;;;;;;49.55;19.50;;;3.00;94.90;;;;;;5018292;28;20080;-77
2020/12/11 07:16:39;;;;;;;46.42;17.75;;;3.00;94.70;;;;;;5016574;28;20029;-76
2020/12/11 07:19:05;;;;;;;43.50;19.20;;;3.00;94.70;;;;;;5033122;28;20040;-77
2020/12/11 07:21:33;;;;;;;47.78;18.75;;;3.00;94.70;;;;;;5031940;28;20041;-77
2020/12/11 07:24:02;;;;;;;48.38;19.27;;;3.00;94.70;;;;;;5032430;28;20140;-77
2020/12/11 07:26:28;;;;;;;49.40;18.92;;;3.00;94.80;;;;;;5032921;28;20033;-77
2020/12/11 07:29:02;;;;;;;44.38;18.30;;;3.00;94.70;;;;;;5033424;28;20032;-78
2020/12/11 07:31:28;;;;;;;47.65;19.33;;;3.00;94.70;;;;;;5035421;28;20055;-78
2020/12/11 07:33:53;;;;;;;49.72;19.27;;;3.00;94.70;;;;;;5032946;28;20021;-77
2020/12/11 07:36:19;;;;;;;48.80;20.45;;;3.10;94.80;;;;;;5037294;28;20490;-78
2020/12/11 07:38:46;;;;;;;45.17;19.40;;;3.10;94.70;;;;;;5038989;28;20029;-78
2020/12/11 07:41:17;;;;;;;49.50;19.75;;;3.10;94.70;;;;;;5035444;28;20110;-78
2020/12/11 07:43:47;;;;;;;45.67;18.85;;;3.10;94.70;;;;;;5032397;28;20543;-79
2020/12/11 07:46:20;;;;;;;50.95;18.75;;;3.10;94.70;;;;;;5034352;28;20034;-78
2020/12/11 07:48:51;;;;;;;49.75;17.80;;;3.20;94.70;;;;;;5023845;28;20413;-78
2020/12/11 07:51:18;;;;;;;44.45;17.80;;;3.10;94.70;;;;;;5051898;28;20116;-79
2020/12/11 07:53:53;;;;;;;39.45;17.58;;;3.20;94.60;;;;;;5036481;28;20088;-76
2020/12/11 07:56:24;;;;;;;44.03;17.75;;;3.10;94.50;;;;;;5032751;28;20056;-76
2020/12/11 07:58:50;;;;;;;37.20;16.63;;;3.10;94.60;;;;;;5020401;28;20371;-76
2020/12/11 08:01:16;;;;;;;44.50;17.60;;;3.10;94.60;;;;;;5038329;28;20111;-77
2020/12/11 08:03:41;;;;;;;41.13;17.65;;;3.20;94.50;;;;;;5034652;28;20031;-76
2020/12/11 08:06:11;;;;;;;45.35;18.27;;;3.20;94.50;;;;;;5040006;28;20107;-76
2020/12/11 08:08:36;;;;;;;42.88;18.45;;;3.20;94.50;;;;;;5042920;28;20033;-75
2020/12/11 08:11:02;;;;;;;42.70;16.80;;;3.20;94.40;;;;;;5039708;28;20508;-76
2020/12/11 08:13:27;;;;;;;46.60;16.88;;;3.20;94.50;;;;;;5028729;28;20025;-76
2020/12/11 08:16:00;;;;;;;44.42;19.23;;;3.20;94.40;;;;;;5035276;28;20022;-77
2020/12/11 08:18:29;;;;;;;45.58;17.80;;;3.20;94.40;;;;;;5036994;28;20037;-76
2020/12/11 08:20:56;;;;;;;42.72;18.08;;;3.20;94.40;;;;;;5048463;28;20037;-74
2020/12/11 08:23:24;;;;;;;47.58;18.48;;;3.20;94.40;;;;;;5023010;28;20056;-75
2020/12/11 08:26:07;;;;;;;51.72;18.05;;;3.30;94.40;;;;;;5033918;28;20025;-75
2020/12/11 08:28:33;;;;;;;48.65;19.73;;;3.20;94.20;;;;;;5039128;28;20123;-75
2020/12/11 08:31:12;;;;;;;49.40;20.30;;;3.20;94.30;;;;;;5039972;28;20072;-75
2020/12/11 08:33:38;;;;;;;53.17;19.92;;;3.30;94.30;;;;;;5023025;28;20517;-75
2020/12/11 08:36:03;;;;;;;42.53;20.00;;;3.30;94.30;;;;;;5032681;28;20029;-75
2020/12/11 08:38:29;;;;;;;47.53;18.80;;;3.20;94.20;;;;;;5039530;28;20022;-75
2020/12/11 08:40:54;;;;;;;53.22;20.42;;;3.30;94.30;;;;;;5031780;28;20125;-75
2020/12/11 08:43:30;;;;;;;47.63;18.83;;;3.30;94.40;;;;;;5028343;28;20038;-75
2020/12/11 08:46:11;;;;;;;40.92;19.10;;;3.40;94.30;;;;;;5015613;28;20049;-76
2020/12/11 08:51:34;;;;;;;51.92;19.77;;;3.30;94.20;;;;;;5052591;28;20124;-75
2020/12/11 08:54:02;;;;;;;50.22;20.63;;;3.30;94.20;;;;;;5039616;28;20136;-75
2020/12/11 08:56:28;;;;;;;47.53;19.85;;;3.30;94.20;;;;;;5034892;28;20037;-76
2020/12/11 08:58:53;;;;;;;45.67;19.58;;;3.30;94.10;;;;;;5042348;28;20039;-75
2020/12/11 09:01:19;;;;;;;40.80;18.20;;;3.30;94.20;;;;;;5046121;28;20018;-75
2020/12/11 09:03:44;;;;;;;40.05;20.08;;;3.30;94.20;;;;;;5032390;28;20141;-74
2020/12/11 09:06:10;;;;;;;43.42;19.05;;;3.30;94.20;;;;;;5045903;28;20021;-74
2020/12/11 09:08:35;;;;;;;45.58;19.08;;;3.20;94.30;;;;;;5036116;28;20393;-74
2020/12/11 09:11:01;;;;;;;40.20;18.00;;;3.30;94.30;;;;;;5044878;28;20040;-75
2020/12/11 09:13:26;;;;;;;42.80;18.17;;;3.30;94.30;;;;;;5038087;28;20119;-75
2020/12/11 09:15:52;;;;;;;45.33;18.25;;;3.30;94.30;;;;;;5034528;28;20121;-75
2020/12/11 09:18:17;;;;;;;43.15;19.05;;;3.30;94.30;;;;;;5035639;28;20396;-74
2020/12/11 09:20:43;;;;;;;39.65;18.33;;;3.30;94.30;;;;;;5044949;28;20034;-72
2020/12/11 09:23:08;;;;;;;46.05;17.92;;;3.30;94.30;;;;;;5027283;28;20120;-67
2020/12/11 09:25:34;;;;;;;38.67;19.20;;;3.30;94.30;;;;;;5033235;28;20151;-66
2020/12/11 09:28:01;;;;;;;42.95;18.20;;;3.30;94.30;;;;;;5032271;28;20022;-67
2020/12/11 09:30:29;;;;;;;43.35;19.02;;;3.30;94.40;;;;;;5054151;28;20032;-66
2020/12/11 09:33:01;;;;;;;40.53;18.25;;;3.40;94.40;;;;;;5036682;28;20253;-67
2020/12/11 09:35:27;;;;;;;41.13;17.65;;;3.40;94.30;;;;;;5031794;28;20026;-67
2020/12/11 09:37:53;;;;;;;42.30;18.00;;;3.40;94.30;;;;;;5048612;28;20037;-67
2020/12/11 09:40:31;;;;;;;38.22;17.73;;;3.40;94.70;;;;;;5033373;28;20053;-67
2020/12/11 09:43:33;;;;;;;39.15;17.63;;;3.40;94.40;;;;;;5033063;28;20041;-71
2020/12/11 09:56:31;;;;;;;42.25;17.98;;;3.60;94.30;;;;;;5033782;28;20095;-74
2020/12/11 09:59:10;;;;;;;39.00;17.60;;;3.60;94.20;;;;;;5043012;28;20042;-75
2020/12/11 10:01:51;;;;;;;36.30;15.85;;;3.60;94.20;;;;;;5032733;28;20037;-75
2020/12/11 10:04:16;;;;;;;34.95;16.15;;;3.60;94.20;;;;;;5033831;28;20064;-74
2020/12/11 10:06:42;;;;;;;38.28;17.05;;;3.60;94.20;;;;;;5032153;28;20490;-71
2020/12/11 10:09:07;;;;;;;41.95;16.88;;;3.60;94.20;;;;;;5021968;28;20037;-71
2020/12/11 10:11:34;;;;;;;35.28;15.82;;;3.60;94.20;;;;;;5032611;28;20029;-72
2020/12/11 10:14:17;;;;;;;38.67;17.13;;;3.70;94.20;;;;;;5032850;28;20083;-72
2020/12/11 10:16:43;;;;;;;33.53;15.63;;;3.70;94.20;;;;;;5031811;28;20061;-71
2020/12/11 10:19:09;;;;;;;40.95;17.77;;;3.70;94.20;;;;;;5032477;28;20060;-72
2020/12/11 10:21:35;;;;;;;39.60;16.63;;;3.70;94.20;;;;;;5032661;28;20478;-72
2020/12/11 10:24:00;;;;;;;41.05;18.15;;;3.70;94.10;;;;;;5030658;28;20104;-72
2020/12/11 10:26:26;;;;;;;42.55;19.05;;;3.70;94.00;;;;;;5018122;28;20026;-72
2020/12/11 10:28:51;;;;;;;36.47;17.38;;;3.70;94.00;;;;;;5031325;28;20045;-72
2020/12/11 10:31:17;;;;;;;36.38;19.00;;;3.70;94.10;;;;;;5032927;28;20025;-72
2020/12/11 10:33:42;;;;;;;37.63;17.50;;;3.70;94.00;;;;;;5031278;28;20115;-72
2020/12/11 10:36:08;;;;;;;44.13;18.52;;;3.80;94.10;;;;;;5031844;28;20025;-72
2020/12/11 10:38:33;;;;;;;37.65;18.35;;;3.80;94.00;;;;;;5032085;28;20041;-71
2020/12/11 10:40:59;;;;;;;41.88;19.05;;;3.80;93.90;;;;;;5032678;28;20025;-71
2020/12/11 10:43:24;;;;;;;38.85;19.27;;;3.80;93.90;;;;;;5029561;28;20029;-71
2020/12/11 10:45:50;;;;;;;38.47;18.73;;;3.80;94.00;;;;;;5047475;28;20075;-73
2020/12/11 10:48:15;;;;;;;43.42;18.30;;;3.90;94.00;;;;;;5037686;28;20075;-74
2020/12/11 10:50:41;;;;;;;46.55;20.23;;;3.90;93.90;;;;;;5045779;28;20272;-73
2020/12/11 10:53:06;;;;;;;39.67;19.65;;;3.90;93.90;;;;;;5038633;28;20033;-70
2020/12/11 10:55:32;;;;;;;42.13;19.77;;;3.90;93.80;;;;;;5032230;28;20091;-72
2020/12/11 10:57:57;;;;;;;47.25;21.55;;;3.90;93.80;;;;;;5031231;28;20040;-72
2020/12/11 11:00:23;;;;;;;45.63;20.88;;;3.80;93.90;;;;;;5038242;28;20014;-72
2020/12/11 11:02:48;;;;;;;41.78;18.83;;;3.80;93.90;;;;;;5030579;28;20041;-72
2020/12/11 11:05:14;;;;;;;49.08;20.25;;;3.80;93.80;;;;;;5037181;28;20398;-72
2020/12/11 11:07:40;;;;;;;41.97;19.65;;;3.70;93.80;;;;;;5031307;28;20079;-72
2020/12/11 11:12:57;;;;;;;42.67;21.08;;;3.70;93.90;;;;;;5035607;28;20087;-72
2020/12/11 11:15:35;;;;;;;38.08;18.77;;;3.70;93.90;;;;;;5030912;28;20030;-72
2020/12/11 11:18:12;;;;;;;41.60;19.75;;;3.70;94.00;;;;;;5013350;28;20026;-76
2020/12/11 11:26:28;;;;;;;39.38;19.05;;;3.80;94.00;;;;;;5025195;28;20031;-79
2020/12/11 11:28:53;;;;;;;38.30;18.65;;;3.80;94.00;;;;;;5032115;28;20033;-78
2020/12/11 11:31:19;;;;;;;40.55;18.50;;;3.80;93.90;;;;;;5028843;28;20044;-78
2020/12/11 11:33:44;;;;;;;36.03;18.77;;;3.80;94.00;;;;;;5018716;28;20177;-78
2020/12/11 11:36:11;;;;;;;41.90;17.70;;;3.80;94.00;;;;;;5011726;28;20025;-78
2020/12/11 11:38:36;;;;;;;40.10;18.33;;;3.80;94.00;;;;;;5024433;28;20029;-81
2020/12/11 11:41:02;;;;;;;38.30;17.85;;;3.80;94.00;;;;;;5031043;28;20492;-79
2020/12/11 11:43:46;;;;;;;42.33;19.52;;;3.80;94.00;;;;;;5039426;28;20033;-80
2020/12/11 11:46:12;;;;;;;40.73;19.57;;;3.80;94.00;;;;;;5052605;28;20395;-79
2020/12/11 11:48:40;;;;;;;41.67;19.50;;;3.80;94.00;;;;;;5031967;28;20029;-79
2020/12/11 11:51:12;;;;;;;41.60;20.15;;;3.80;94.00;;;;;;5031030;28;20030;-78
2020/12/11 11:53:38;;;;;;;44.42;19.05;;;3.70;94.20;;;;;;5030702;28;20050;-81
2020/12/11 11:56:03;;;;;;;34.58;16.45;;;3.70;94.30;;;;;;5029650;28;20032;-80
2020/12/11 11:58:29;;;;;;;40.83;17.40;;;3.80;94.30;;;;;;5031034;28;20384;-80
2020/12/11 12:00:54;;;;;;;39.53;17.70;;;3.80;94.40;;;;;;5030352;28;20025;-80
2020/12/11 12:03:24;;;;;;;38.05;17.73;;;3.80;94.40;;;;;;5030123;28;20044;-80
2020/12/11 12:05:49;;;;;;;40.90;18.10;;;3.80;94.30;;;;;;5031101;28;20084;-79
2020/12/11 12:08:15;;;;;;;41.35;18.92;;;3.90;94.20;;;;;;5030610;28;20044;-79
2020/12/11 12:10:40;;;;;;;42.58;17.60;;;3.90;94.30;;;;;;5029633;28;20100;-80
2020/12/11 12:13:06;;;;;;;47.10;17.83;;;3.90;94.30;;;;;;5013154;28;20453;-80
2020/12/11 12:15:32;;;;;;;36.38;17.48;;;3.90;94.40;;;;;;5031382;28;20052;-80
2020/12/11 12:18:07;;;;;;;40.05;18.00;;;4.00;94.40;;;;;;5034349;28;20068;-80
2020/12/11 12:20:40;;;;;;;42.80;18.90;;;3.90;94.50;;;;;;5043323;28;20091;-80
2020/12/11 12:28:40;;;;;;;43.10;18.13;;;3.90;94.70;;;;;;5035202;28;20040;-75
2020/12/11 12:31:07;;;;;;;39.22;17.63;;;3.90;94.70;;;;;;5044325;28;20036;-77
2020/12/11 12:43:51;;;;;;;43.80;19.67;;;4.10;94.90;;;;;;5023872;28;20083;-77
2020/12/11 12:46:17;;;;;;;45.30;19.05;;;4.10;94.90;;;;;;5036014;28;20525;-76
2020/12/11 12:48:42;;;;;;;47.53;18.27;;;4.10;94.90;;;;;;5034587;28;20026;-78
2020/12/11 12:51:08;;;;;;;41.50;19.80;;;4.10;94.90;;;;;;5030444;28;20021;-77
2020/12/11 12:53:36;;;;;;;46.08;19.08;;;4.20;95.00;;;;;;5033616;28;20063;-79
2020/12/11 12:58:50;;;;;;;42.45;20.52;;;4.20;95.00;;;;;;5023952;28;20052;-76
2020/12/11 13:01:20;;;;;;;41.50;18.88;;;4.20;95.00;;;;;;5035485;28;20030;-76
2020/12/11 13:04:14;;;;;;;43.33;19.17;;;4.30;95.00;;;;;;5033358;28;20033;-85
2020/12/11 13:06:44;;;;;;;40.60;19.42;;;4.30;95.00;;;;;;5033343;28;20359;-84
2020/12/11 13:09:09;;;;;;;50.97;20.27;;;4.30;95.10;;;;;;5029110;28;20080;-84
2020/12/11 13:11:35;;;;;;;48.10;19.52;;;4.30;95.10;;;;;;5032376;28;20468;-84
2020/12/11 13:14:00;;;;;;;45.35;18.67;;;4.30;95.10;;;;;;5032948;28;20036;-82
2020/12/11 13:16:26;;;;;;;42.60;19.05;;;4.30;95.20;;;;;;5037134;28;20470;-79
2020/12/11 13:18:51;;;;;;;41.65;19.17;;;4.30;95.10;;;;;;5033894;28;20026;-75
2020/12/11 13:21:22;;;;;;;44.53;20.75;;;4.40;95.20;;;;;;5037362;28;20029;-79